createdAt,value
2018-04-13T00:00:52.093Z,99.90
2018-04-13T00:03:19.648Z,99.90
2018-04-13T00:05:47.209Z,99.90
2018-04-13T00:08:14.751Z,99.90
2018-04-13T00:10:42.366Z,99.90
2018-04-13T00:13:10.683Z,99.90
2018-04-13T00:15:38.247Z,99.90
2018-04-13T00:18:05.788Z,99.90
2018-04-13T00:20:33.359Z,99.90
2018-04-13T00:23:00.903Z,99.90
2018-04-13T00:25:29.237Z,99.90
2018-04-13T00:27:56.770Z,99.90
2018-04-13T00:30:24.299Z,99.90
2018-04-13T00:32:52.633Z,99.90
2018-04-13T00:35:20.188Z,99.90
2018-04-13T00:37:47.755Z,99.90
2018-04-13T00:40:16.079Z,99.90
2018-04-13T00:42:43.657Z,99.90
2018-04-13T00:45:11.208Z,99.90
2018-04-13T00:47:38.777Z,99.90
2018-04-13T00:50:06.318Z,99.90
2018-04-13T00:52:33.899Z,99.90
2018-04-13T00:55:01.437Z,99.90
2018-04-13T00:57:29.000Z,99.90
2018-04-13T00:59:56.545Z,99.90
2018-04-13T01:02:24.880Z,99.90
2018-04-13T01:04:52.451Z,99.90
2018-04-13T01:07:20.030Z,99.90
2018-04-13T01:09:48.325Z,99.90
2018-04-13T01:12:15.891Z,99.90
2018-04-13T01:14:43.433Z,99.90
2018-04-13T01:17:11.734Z,99.90
2018-04-13T01:19:39.303Z,99.90
2018-04-13T01:22:06.849Z,99.90
2018-04-13T01:24:34.420Z,99.90
2018-04-13T01:27:01.961Z,99.90
2018-04-13T01:29:29.534Z,99.90
2018-04-13T01:31:57.061Z,99.90
2018-04-13T01:34:25.439Z,99.90
2018-04-13T01:36:53.956Z,99.90
2018-04-13T01:39:21.518Z,99.90
2018-04-13T01:41:49.062Z,99.90
2018-04-13T01:44:16.636Z,99.90
2018-04-13T01:46:44.176Z,99.90
2018-04-13T01:49:11.755Z,99.90
2018-04-13T01:51:39.290Z,99.90
2018-04-13T01:54:07.616Z,99.90
2018-04-13T01:56:35.155Z,99.90
2018-04-13T01:59:02.707Z,99.90
2018-04-13T02:01:30.245Z,99.90
2018-04-13T02:03:58.577Z,99.90
2018-04-13T02:06:26.131Z,99.90
2018-04-13T02:08:53.694Z,99.90
2018-04-13T02:11:21.240Z,99.90
2018-04-13T02:13:48.799Z,99.90
2018-04-13T02:16:16.360Z,99.90
2018-04-13T02:18:43.927Z,99.90
2018-04-13T02:21:11.486Z,99.90
2018-04-13T02:23:39.027Z,99.90
2018-04-13T02:26:06.589Z,99.90
2018-04-13T02:28:34.117Z,99.90
2018-04-13T02:31:02.459Z,99.90
2018-04-13T02:33:30.016Z,99.90
2018-04-13T02:35:57.559Z,99.90
2018-04-13T02:38:25.118Z,99.90
2018-04-13T02:40:52.675Z,99.90
2018-04-13T02:43:20.225Z,99.90
2018-04-13T02:45:47.804Z,99.90
2018-04-13T02:48:15.341Z,99.90
2018-04-13T02:50:42.911Z,99.90
2018-04-13T02:53:10.456Z,99.90
2018-04-13T02:55:38.023Z,99.90
2018-04-13T02:58:05.568Z,99.90
2018-04-13T03:00:33.134Z,99.90
2018-04-13T03:03:00.687Z,99.90
2018-04-13T03:05:28.226Z,99.90
2018-04-13T03:07:56.568Z,99.90
2018-04-13T03:10:24.920Z,99.90
2018-04-13T03:12:52.497Z,99.90
2018-04-13T03:15:20.034Z,99.90
2018-04-13T03:17:47.596Z,99.90
2018-04-13T03:20:15.132Z,99.90
2018-04-13T03:22:42.695Z,99.90
2018-04-13T03:25:10.232Z,99.90
2018-04-13T03:27:38.571Z,99.90
2018-04-13T03:30:06.121Z,99.90
2018-04-13T03:32:33.685Z,99.90
2018-04-13T03:35:01.225Z,99.90
2018-04-13T03:37:28.791Z,99.90
2018-04-13T03:39:56.330Z,99.90
2018-04-13T03:42:23.901Z,99.90
2018-04-13T03:44:51.438Z,99.90
2018-04-13T03:47:19.004Z,99.90
2018-04-13T03:49:46.545Z,99.90
2018-04-13T03:52:14.879Z,99.90
2018-04-13T03:54:42.432Z,99.90
2018-04-13T03:57:09.998Z,99.90
2018-04-13T03:59:37.536Z,99.90
2018-04-13T04:02:05.132Z,99.90
2018-04-13T04:04:32.658Z,99.90
2018-04-13T04:07:00.230Z,99.90
2018-04-13T04:09:27.787Z,99.90
2018-04-13T04:11:55.330Z,99.90
2018-04-13T04:14:22.888Z,99.90
2018-04-13T04:16:50.428Z,99.90
2018-04-13T04:19:18.001Z,99.90
2018-04-13T04:21:57.475Z,99.90
2018-04-13T04:24:36.860Z,99.90
2018-04-13T04:27:05.165Z,99.90
2018-04-13T04:29:32.724Z,99.90
2018-04-13T04:32:00.263Z,99.90
2018-04-13T04:34:27.849Z,99.90
2018-04-13T04:36:55.387Z,99.90
2018-04-13T04:39:22.940Z,99.90
2018-04-13T04:41:50.483Z,99.90
2018-04-13T04:44:18.803Z,99.90
2018-04-13T04:46:46.349Z,99.90
2018-04-13T04:49:13.911Z,99.90
2018-04-13T04:51:41.449Z,99.90
2018-04-13T04:54:10.969Z,99.90
2018-04-13T04:56:38.512Z,99.90
2018-04-13T04:59:06.063Z,99.90
2018-04-13T05:01:34.362Z,99.90
2018-04-13T05:04:01.935Z,99.90
2018-04-13T05:06:29.495Z,99.90
2018-04-13T05:08:57.053Z,99.90
2018-04-13T05:11:24.598Z,99.90
2018-04-13T05:13:52.181Z,99.90
2018-04-13T05:16:19.721Z,99.90
2018-04-13T05:18:47.279Z,99.90
2018-04-13T05:21:14.805Z,99.90
2018-04-13T05:23:43.142Z,99.90
2018-04-13T05:26:10.697Z,99.90
2018-04-13T05:28:38.249Z,99.90
2018-04-13T05:31:05.822Z,99.90
2018-04-13T05:33:33.360Z,99.90
2018-04-13T05:36:01.067Z,99.90
2018-04-13T05:38:29.381Z,99.90
2018-04-13T05:40:56.937Z,99.90
2018-04-13T05:43:25.233Z,99.90
2018-04-13T05:45:52.796Z,99.90
2018-04-13T05:48:20.348Z,99.90
2018-04-13T05:50:47.903Z,99.90
2018-04-13T05:53:15.461Z,99.90
2018-04-13T05:55:43.042Z,99.90
2018-04-13T05:58:10.598Z,99.70
2018-04-13T06:00:38.183Z,99.60
2018-04-13T06:03:05.739Z,99.90
2018-04-13T06:05:33.307Z,99.20
2018-04-13T06:08:00.836Z,99.20
2018-04-13T06:10:28.398Z,99.10
2018-04-13T06:12:55.939Z,99.20
2018-04-13T06:15:23.500Z,99.30
2018-04-13T06:17:51.071Z,99.40
2018-04-13T06:20:18.639Z,99.40
2018-04-13T06:22:46.222Z,99.20
2018-04-13T06:25:13.778Z,98.90
2018-04-13T06:27:41.359Z,98.70
2018-04-13T06:30:08.918Z,97.90
2018-04-13T06:32:36.501Z,97.60
2018-04-13T06:35:04.094Z,97.50
2018-04-13T06:37:31.668Z,97.70
2018-04-13T06:39:59.215Z,97.50
2018-04-13T06:42:26.792Z,97.50
2018-04-13T06:44:54.343Z,97.70
2018-04-13T06:47:21.924Z,97.80
2018-04-13T06:49:49.474Z,97.50
2018-04-13T06:52:17.040Z,97.20
2018-04-13T06:54:44.588Z,96.90
2018-04-13T06:57:12.179Z,96.70
2018-04-13T06:59:39.737Z,96.80
2018-04-13T07:02:07.342Z,96.80
2018-04-13T07:04:34.904Z,96.60
2018-04-13T07:07:02.472Z,96.40
2018-04-13T07:09:30.048Z,95.80
2018-04-13T07:11:57.596Z,95.60
2018-04-13T07:14:25.166Z,95.60
2018-04-13T07:16:52.719Z,95.30
2018-04-13T07:19:20.361Z,95.10
2018-04-13T07:21:48.641Z,94.90
2018-04-13T07:24:16.215Z,94.80
2018-04-13T07:26:43.758Z,94.90
2018-04-13T07:29:11.356Z,95.10
2018-04-13T07:31:38.900Z,94.90
2018-04-13T07:34:06.973Z,94.90
2018-04-13T07:36:34.042Z,94.70
2018-04-13T07:39:01.622Z,94.60
2018-04-13T07:41:29.936Z,94.50
2018-04-13T07:43:57.502Z,94.50
2018-04-13T07:46:25.071Z,94.40
2018-04-13T07:48:52.666Z,94.30
2018-04-13T07:51:20.212Z,94.10
2018-04-13T07:53:47.777Z,94.00
2018-04-13T07:56:15.337Z,93.80
2018-04-13T07:58:43.284Z,93.90
2018-04-13T08:01:10.470Z,93.80
2018-04-13T08:03:38.018Z,93.90
2018-04-13T08:06:05.616Z,93.80
2018-04-13T08:08:33.169Z,93.90
2018-04-13T08:11:01.504Z,94.10
2018-04-13T08:13:29.041Z,94.10
2018-04-13T08:15:56.601Z,94.00
2018-04-13T08:18:24.265Z,93.80
2018-04-13T08:20:51.903Z,93.60
2018-04-13T08:23:19.519Z,93.70
2018-04-13T08:25:47.078Z,93.40
2018-04-13T08:28:14.634Z,93.20
2018-04-13T08:30:42.235Z,93.00
2018-04-13T08:33:10.530Z,92.90
2018-04-13T08:35:38.185Z,92.90
2018-04-13T08:38:05.685Z,93.20
2018-04-13T08:40:33.370Z,93.10
2018-04-13T08:43:00.903Z,92.90
2018-04-13T08:45:28.500Z,92.70
2018-04-13T08:47:56.842Z,92.40
2018-04-13T08:50:25.914Z,92.00
2018-04-13T08:52:54.208Z,92.00
2018-04-13T08:55:21.794Z,92.10
2018-04-13T08:57:49.404Z,92.00
2018-04-13T09:00:16.923Z,91.40
2018-04-13T09:02:45.283Z,91.80
2018-04-13T09:05:12.845Z,91.70
2018-04-13T09:10:14.379Z,91.80
2018-04-13T09:12:41.958Z,91.60
2018-04-13T09:15:09.497Z,91.70
2018-04-13T09:17:37.056Z,91.80
2018-04-13T09:20:04.607Z,91.80
2018-04-13T09:22:32.224Z,91.60
2018-04-13T09:25:00.550Z,91.90
2018-04-13T09:27:28.169Z,91.80
2018-04-13T09:29:56.475Z,92.50
2018-04-13T09:32:24.046Z,92.50
2018-04-13T09:34:51.616Z,92.40
2018-04-13T09:37:19.206Z,92.40
2018-04-13T09:39:46.825Z,92.60
2018-04-13T09:42:14.404Z,93.00
2018-04-13T09:44:41.976Z,93.20
2018-04-13T09:47:09.540Z,93.50
2018-04-13T09:49:37.101Z,93.70
2018-04-13T09:52:04.675Z,93.90
2018-04-13T09:54:32.327Z,94.20
2018-04-13T09:57:00.701Z,94.60
2018-04-13T09:59:28.244Z,94.60
2018-04-13T10:01:55.785Z,94.80
2018-04-13T10:04:23.365Z,95.00
2018-04-13T10:06:50.913Z,95.10
2018-04-13T10:09:18.487Z,95.20
2018-04-13T10:11:46.031Z,95.30
2018-04-13T10:14:13.706Z,94.90
2018-04-13T10:16:41.251Z,95.00
2018-04-13T10:19:08.823Z,94.60
2018-04-13T10:21:37.173Z,91.90
2018-04-13T10:24:05.487Z,90.20
2018-04-13T10:26:33.037Z,90.10
2018-04-13T10:29:00.617Z,88.40
2018-04-13T10:31:28.187Z,89.50
2018-04-13T10:33:55.750Z,90.60
2018-04-13T10:36:23.294Z,91.10
2018-04-13T10:38:50.868Z,91.80
2018-04-13T10:41:18.433Z,92.10
2018-04-13T10:43:46.867Z,92.40
2018-04-13T10:46:14.522Z,92.40
2018-04-13T10:48:42.184Z,92.40
2018-04-13T10:51:09.758Z,92.70
2018-04-13T10:53:37.329Z,93.10
2018-04-13T10:56:04.871Z,93.20
2018-04-13T10:58:32.443Z,93.70
2018-04-13T11:00:59.991Z,94.40
2018-04-13T11:03:27.568Z,95.00
2018-04-13T11:05:55.124Z,95.40
2018-04-13T11:08:22.667Z,95.60
2018-04-13T11:10:50.227Z,95.80
2018-04-13T11:13:17.784Z,95.10
2018-04-13T11:15:45.361Z,95.00
2018-04-13T11:18:12.974Z,95.50
2018-04-13T11:20:40.565Z,95.90
2018-04-13T11:23:08.116Z,96.30
2018-04-13T11:25:35.673Z,96.60
2018-04-13T11:28:03.210Z,97.10
2018-04-13T11:30:30.771Z,97.50
2018-04-13T11:32:58.331Z,97.40
2018-04-13T11:35:25.910Z,97.30
2018-04-13T11:37:53.482Z,98.00
2018-04-13T11:40:21.088Z,98.20
2018-04-13T11:42:49.407Z,99.20
2018-04-13T11:45:16.991Z,99.20
2018-04-13T11:47:44.533Z,99.30
2018-04-13T11:50:12.073Z,99.80
2018-04-13T11:52:39.625Z,99.90
2018-04-13T11:55:07.170Z,99.90
2018-04-13T11:57:35.497Z,99.90
2018-04-13T12:00:03.051Z,99.90
2018-04-13T12:02:30.633Z,99.90
2018-04-13T12:04:58.182Z,99.90
2018-04-13T12:07:25.788Z,99.90
2018-04-13T12:09:53.357Z,99.90
2018-04-13T12:12:20.931Z,99.90
2018-04-13T12:14:48.477Z,99.90
2018-04-13T12:17:16.065Z,99.90
2018-04-13T12:19:43.610Z,99.90
2018-04-13T12:22:11.178Z,99.70
2018-04-13T12:24:38.727Z,99.80
2018-04-13T12:27:06.298Z,99.80
2018-04-13T12:29:33.956Z,99.70
2018-04-13T12:32:01.538Z,99.60
2018-04-13T12:34:29.146Z,99.40
2018-04-13T12:36:56.732Z,99.40
2018-04-13T12:39:24.276Z,99.10
2018-04-13T12:41:52.613Z,99.80
2018-04-13T12:44:20.148Z,99.80
2018-04-13T12:46:47.712Z,99.40
2018-04-13T12:49:15.260Z,99.60
2018-04-13T12:51:42.831Z,99.90
2018-04-13T12:54:10.432Z,99.90
2018-04-13T12:59:11.867Z,99.90
2018-04-13T13:01:39.442Z,99.90
2018-04-13T13:04:07.007Z,99.90
2018-04-13T13:06:34.554Z,99.90
2018-04-13T13:09:02.128Z,99.90
2018-04-13T13:11:29.663Z,99.90
2018-04-13T13:13:57.232Z,99.90
2018-04-13T13:16:24.763Z,99.90
2018-04-13T13:18:52.338Z,99.90
2018-04-13T13:21:19.884Z,99.90
2018-04-13T13:23:47.513Z,99.90
2018-04-13T13:26:15.144Z,99.90
2018-04-13T13:28:43.495Z,99.90
2018-04-13T13:31:11.043Z,99.90
2018-04-13T13:33:38.628Z,99.90
2018-04-13T13:36:06.171Z,99.90
2018-04-13T13:38:33.739Z,99.90
2018-04-13T13:41:01.280Z,99.90
2018-04-13T13:43:28.837Z,99.90
2018-04-13T13:45:56.378Z,99.90
2018-04-13T13:48:23.968Z,99.90
2018-04-13T13:50:51.528Z,99.90
2018-04-13T13:53:19.089Z,99.90
2018-04-13T13:55:46.635Z,99.90
2018-04-13T13:58:14.219Z,99.90
2018-04-13T14:00:41.815Z,99.90
2018-04-13T14:03:10.122Z,99.90
2018-04-13T14:05:37.704Z,99.90
2018-04-13T14:08:05.255Z,99.90
2018-04-13T14:10:32.820Z,99.90
2018-04-13T14:13:00.358Z,99.90
2018-04-13T14:15:27.930Z,99.90
2018-04-13T14:17:55.464Z,99.90
2018-04-13T14:20:23.795Z,99.90
2018-04-13T14:22:51.357Z,99.90
2018-04-13T14:25:18.917Z,99.90
2018-04-13T14:27:46.469Z,99.90
2018-04-13T14:30:14.078Z,99.90
2018-04-13T14:32:43.094Z,99.90
2018-04-13T14:35:10.683Z,99.90
2018-04-13T14:37:38.324Z,99.90
2018-04-13T14:40:05.905Z,99.90
2018-04-13T14:42:33.438Z,99.90
2018-04-13T14:45:01.000Z,99.90
2018-04-13T14:47:28.555Z,99.40
2018-04-13T14:49:56.155Z,99.50
2018-04-13T14:52:23.700Z,99.60
2018-04-13T14:54:51.260Z,99.50
2018-04-13T14:57:18.811Z,98.50
2018-04-13T14:59:46.342Z,98.80
2018-04-13T15:02:13.923Z,98.60
2018-04-13T15:04:41.477Z,98.40
2018-04-13T15:07:09.078Z,98.40
2018-04-13T15:09:36.635Z,98.20
2018-04-13T15:12:05.712Z,97.20
2018-04-13T15:14:33.301Z,97.20
2018-04-13T15:17:00.884Z,97.20
2018-04-13T15:19:29.212Z,97.30
2018-04-13T15:21:56.771Z,97.30
2018-04-13T15:24:24.319Z,97.10
2018-04-13T15:26:51.899Z,97.00
2018-04-13T15:29:19.434Z,97.30
2018-04-13T15:31:46.998Z,97.20
2018-04-13T15:34:14.545Z,97.30
2018-04-13T15:36:42.117Z,97.20
2018-04-13T15:39:09.695Z,97.30
2018-04-13T15:41:37.281Z,97.20
2018-04-13T15:44:05.605Z,97.40
2018-04-13T15:46:33.261Z,97.40
2018-04-13T15:49:00.826Z,97.10
2018-04-13T15:51:28.393Z,96.80
2018-04-13T15:53:55.937Z,97.00
2018-04-13T15:56:23.505Z,96.10
2018-04-13T15:58:51.069Z,95.80
2018-04-13T16:01:18.624Z,95.70
2018-04-13T16:03:46.210Z,95.30
2018-04-13T16:06:13.779Z,95.00
2018-04-13T16:08:41.354Z,94.10
2018-04-13T16:11:08.899Z,94.20
2018-04-13T16:13:36.464Z,94.50
2018-04-13T16:16:04.015Z,94.40
2018-04-13T16:18:31.578Z,94.50
2018-04-13T16:20:59.120Z,93.90
2018-04-13T16:23:26.688Z,93.80
2018-04-13T16:25:54.246Z,93.70
2018-04-13T16:28:21.820Z,93.60
2018-04-13T16:30:49.371Z,93.60
2018-04-13T16:33:16.937Z,93.10
2018-04-13T16:35:44.488Z,93.00
2018-04-13T16:38:12.060Z,93.40
2018-04-13T16:40:39.601Z,92.40
2018-04-13T16:43:07.170Z,92.20
2018-04-13T16:45:34.710Z,91.50
2018-04-13T16:48:02.293Z,90.50
2018-04-13T16:50:29.831Z,91.00
2018-04-13T16:52:57.402Z,90.30
2018-04-13T16:55:24.943Z,90.10
2018-04-13T16:57:52.508Z,88.90
2018-04-13T17:00:20.046Z,88.20
2018-04-13T17:02:47.605Z,86.60
2018-04-13T17:05:15.157Z,84.20
2018-04-13T17:07:42.681Z,85.40
2018-04-13T17:10:10.238Z,84.60
2018-04-13T17:12:37.772Z,83.90
2018-04-13T17:15:05.337Z,83.10
2018-04-13T17:17:32.896Z,82.10
2018-04-13T17:20:00.456Z,81.80
2018-04-13T17:22:28.008Z,80.90
2018-04-13T17:24:55.775Z,80.90
2018-04-13T17:27:23.331Z,79.80
2018-04-13T17:29:50.889Z,80.50
2018-04-13T17:32:18.436Z,80.80
2018-04-13T17:34:46.007Z,79.50
2018-04-13T17:37:13.553Z,79.20
2018-04-13T17:39:41.123Z,78.70
2018-04-13T17:42:08.662Z,77.70
2018-04-13T17:44:36.230Z,77.30
2018-04-13T17:47:03.776Z,77.30
2018-04-13T17:49:31.329Z,78.60
2018-04-13T17:51:58.911Z,82.20
2018-04-13T17:54:26.464Z,85.60
2018-04-13T17:56:54.036Z,88.30
2018-04-13T17:59:21.579Z,90.10
2018-04-13T18:01:49.155Z,91.40
2018-04-13T18:04:16.699Z,92.30
2018-04-13T18:06:44.259Z,93.30
2018-04-13T18:09:11.803Z,94.40
2018-04-13T18:11:39.372Z,95.50
2018-04-13T18:14:06.915Z,96.10
2018-04-13T18:16:34.484Z,97.00
2018-04-13T18:19:02.033Z,97.50
2018-04-13T18:21:29.628Z,98.10
2018-04-13T18:23:57.169Z,99.20
2018-04-13T18:26:24.746Z,99.80
2018-04-13T18:28:52.323Z,99.90
2018-04-13T18:31:19.912Z,99.90
2018-04-13T18:33:48.239Z,99.90
2018-04-13T18:36:16.585Z,99.90
2018-04-13T18:38:44.122Z,99.90
2018-04-13T18:41:11.665Z,99.90
2018-04-13T18:43:39.239Z,99.90
2018-04-13T18:46:07.576Z,99.90
2018-04-13T18:48:35.146Z,99.90
2018-04-13T18:51:02.703Z,99.90
2018-04-13T18:53:30.264Z,99.90
2018-04-13T18:55:57.807Z,99.90
2018-04-13T18:58:25.373Z,99.90
2018-04-13T19:00:52.916Z,99.90
2018-04-13T19:03:20.480Z,99.90
2018-04-13T19:05:48.024Z,99.90
2018-04-13T19:08:15.609Z,99.90
2018-04-13T19:10:43.158Z,99.90
2018-04-13T19:13:10.728Z,99.90
2018-04-13T19:15:38.277Z,99.90
2018-04-13T19:18:05.835Z,99.90
2018-04-13T19:20:33.431Z,99.90
2018-04-13T19:23:01.281Z,99.90
2018-04-13T19:25:28.815Z,99.90
2018-04-13T19:27:56.378Z,99.90
2018-04-13T19:30:23.919Z,99.90
2018-04-13T19:32:52.245Z,99.90
2018-04-13T19:35:19.785Z,99.90
2018-04-13T19:37:47.345Z,99.90
2018-04-13T19:40:14.912Z,99.90
2018-04-13T19:42:42.463Z,99.90
2018-04-13T19:45:10.035Z,99.90
2018-04-13T19:47:37.621Z,99.90
2018-04-13T19:50:05.150Z,99.90
2018-04-13T19:52:32.673Z,99.90
2018-04-13T19:55:00.240Z,99.90
2018-04-13T19:57:27.795Z,99.90
2018-04-13T19:59:56.302Z,99.90
2018-04-13T20:02:23.841Z,99.90
2018-04-13T20:04:51.420Z,99.90
2018-04-13T20:07:18.959Z,99.90
2018-04-13T20:09:46.533Z,99.90
2018-04-13T20:12:14.081Z,99.90
2018-04-13T20:14:41.654Z,99.90
2018-04-13T20:17:09.199Z,99.90
2018-04-13T20:19:36.774Z,99.90
2018-04-13T20:22:04.314Z,99.90
2018-04-13T20:24:31.878Z,99.90
2018-04-13T20:26:59.402Z,99.90
2018-04-13T20:29:26.959Z,99.90
2018-04-13T20:31:54.499Z,99.90
2018-04-13T20:34:22.105Z,99.90
2018-04-13T20:36:49.645Z,99.90
2018-04-13T20:39:17.961Z,99.90
2018-04-13T20:41:45.514Z,99.90
2018-04-13T20:44:13.102Z,99.90
2018-04-13T20:46:40.663Z,99.90
2018-04-13T20:49:08.198Z,99.90
2018-04-13T20:51:35.781Z,99.90
2018-04-13T20:54:03.322Z,99.90
2018-04-13T20:56:30.894Z,99.90
2018-04-13T20:58:58.446Z,99.90
2018-04-13T21:01:26.016Z,99.90
2018-04-13T21:03:53.559Z,99.90
2018-04-13T21:06:21.128Z,99.90
2018-04-13T21:08:48.666Z,99.90
2018-04-13T21:11:16.228Z,99.90
2018-04-13T21:13:43.764Z,99.90
2018-04-13T21:16:12.094Z,99.90
2018-04-13T21:18:39.641Z,99.90
2018-04-13T21:21:07.195Z,99.90
2018-04-13T21:23:34.788Z,99.90
2018-04-13T21:26:03.142Z,99.90
2018-04-13T21:28:30.691Z,99.90
2018-04-13T21:30:58.253Z,99.90
2018-04-13T21:33:25.786Z,99.90
2018-04-13T21:35:53.359Z,99.90
2018-04-13T21:38:20.906Z,99.90
2018-04-13T21:40:48.459Z,99.90
2018-04-13T21:43:16.788Z,99.90
2018-04-13T21:45:44.334Z,99.90
2018-04-13T21:48:11.902Z,99.90
2018-04-13T21:50:39.453Z,99.90
2018-04-13T21:53:07.026Z,99.90
2018-04-13T21:55:35.342Z,99.90
2018-04-13T21:58:03.683Z,99.90
2018-04-13T22:00:31.227Z,99.90
2018-04-13T22:02:58.800Z,99.90
2018-04-13T22:05:26.368Z,99.90
2018-04-13T22:07:53.944Z,99.90
2018-04-13T22:10:21.482Z,99.90
2018-04-13T22:13:00.972Z,99.90
2018-04-13T22:15:28.520Z,99.90
2018-04-13T22:17:56.855Z,99.90
2018-04-13T22:20:24.390Z,99.90
2018-04-13T22:22:51.964Z,99.90
2018-04-13T22:25:19.511Z,99.90
2018-04-13T22:27:47.083Z,99.90
2018-04-13T22:30:14.623Z,99.90
2018-04-13T22:32:42.179Z,99.90
2018-04-13T22:35:09.718Z,99.90
2018-04-13T22:37:38.032Z,99.90
2018-04-13T22:40:05.646Z,99.90
2018-04-13T22:42:33.178Z,99.90
2018-04-13T22:45:00.746Z,99.90
2018-04-13T22:47:28.294Z,99.90
2018-04-13T22:49:55.856Z,99.90
2018-04-13T22:52:23.393Z,99.90
2018-04-13T22:54:50.958Z,99.90
2018-04-13T22:57:18.507Z,99.90
2018-04-13T22:59:46.067Z,99.90
2018-04-13T23:02:13.603Z,99.90
2018-04-13T23:04:41.180Z,99.90
2018-04-13T23:07:09.602Z,99.90
2018-04-13T23:09:37.181Z,99.90
2018-04-13T23:12:05.505Z,99.90
2018-04-13T23:14:33.071Z,99.90
2018-04-13T23:17:00.609Z,99.90
2018-04-13T23:19:28.192Z,99.90
2018-04-13T23:21:55.732Z,99.90
2018-04-13T23:24:23.266Z,99.90
2018-04-13T23:26:51.602Z,99.90
2018-04-13T23:29:19.154Z,99.90
2018-04-13T23:31:46.724Z,99.90
2018-04-13T23:34:14.267Z,99.90
2018-04-13T23:36:41.835Z,99.90
2018-04-13T23:39:09.378Z,99.90
2018-04-13T23:41:36.946Z,99.90
2018-04-13T23:44:04.483Z,99.90
2018-04-13T23:46:32.036Z,99.90
2018-04-13T23:48:59.575Z,99.90
2018-04-13T23:51:27.148Z,99.90
2018-04-13T23:53:54.691Z,99.90
2018-04-13T23:56:23.019Z,99.90
2018-04-13T23:58:50.562Z,99.90
